首页
METAR-TAF:

METAR-TAF

机场 :

皮阿尔科国际机场

西班牙港, 特立尼达岛, 千里達及托巴哥

纬度: 10-37N, 经度: 061-21W, 海拔: 12米

当前天气观测

该预报发布于33分钟前的05:00 UTC
静风
温度 26°C
湿度 94%
气压 1010 hPa
能见度10公里或以上
散云层高于1600英尺

METAR: TTPP 140500Z 00000KT 9999 SCT016 26/25 Q1010 NOSIG

时间: 01:33 (05:33 UTC)

预报

该预报发布于1小时和33分钟前的04:00 UTC
预报有效从14日的 06点(UTC)到 15日的 06点(UTC)
风速5节,风向东转东南
能见度10公里或以上
少量云层高于1600英尺
散云层高于3800英尺
短暂存在
从 14日的 06点(UTC)到 14日的 22点(UTC)
能見度: 5000
少量云层高于1200英尺, 积雨云.
散云层高于1400英尺
阵雨
成为
从 14日的 12点(UTC)到 14日的 14点(UTC)
风速12节,风向东转东南
短暂存在
从 14日的 15点(UTC)到 14日的 19点(UTC)
风速15节,风向东转东南,有时为28节阵风
能見度: 2000
散云层高于1000英尺, 积雨云.
多云层高于1200英尺
雷暴, 雨

TAF: TTPP 140400Z 1406/1506 11005KT 9999 FEW016 SCT038 TEMPO 1406/1422 5000 SHRA FEW012CB SCT014 BECMG 1412/1414 12012KT TEMPO 1415/1419 11015G28KT 2000 TSRA SCT010CB BKN012

超过4000个机场的气象观测和天气预报(METAR&TAF报告)。

可查询的气象台以黄色和红色小点在地图上表示。

将鼠标移到小点上方,可查看气象台名称。

然后点击查看天气观测和预报。

如需切换地图:点击带黑十字的绿色按钮放大地图;点击带横线的绿色按钮缩小地图;或者点击绿色箭头查看邻近地区的地图。


METAR-TAF: